Other Surface Observations
Issued by NWS Missoula, MT

Home | Current Version | Previous Version | Text Only | Print | Product List | Glossary On
Versions: 1 2 3 4 5 6 7 8 9 10 11 12 13 14 15 16 17 18 19 20 21 22 23 24 25 26 27 28 29 30 31 32 33 34 35 36 37 38 39 40 41 42 43 44 45 46 47 48 49 50
000
SXUS55 KMSO 201003
OSOMSO
MONTANA AWOS SUMMARY
NATIONAL WEATHER SERVICE MISSOULA MT
403 AM MDT MON OCT 20 2014

Montana AWOS Reports

ROUNDUP     |KRPX 200955Z AUTO 20012G16KT 40SM 04/M02 A2986 RMK AO1 T00441016
SCOBEY      |K9S2 200955Z AUTO 14007KT 40SM 08/02 A2991 RMK AO1 T00780017
MALTA       |KM75 200955Z AUTO 00000KT 40SM 07/02 A2984 RMK AO1 T00720022
PLAINS      |KS34 200955Z AUTO 00000KT 1SM 01/M02 A2988 RMK AO1 T00061016
LAUREL      |K6S8 200955Z AUTO 00000KT 10SM 04/M02 A2994 RMK AO1 T00441016




USA.gov is the U.S. government's official web portal to all federal, state and local government web resources and services.